Archival Weather

Tokyo Intl

Tokyo Intl, Japan (RJTT)

Report from: Friday, June 24, 2022 1:00 AM JST
Current time: Tuesday, August 16, 2022 3:48 PM JST

Current weather
Weather history
Weather forecast

Present weatherLight rain
Temperature23.0°C (73.4°F)
Dew point21.0°C (69.8°F)
Winds 6 kts (3.1 m/s, 6.9 mph) South (190°)
Visibility6.2 mi. (10 km)
Clouds Few clouds 500 ft. (152 m)
Few clouds 800 ft. (244 m)
Ceiling: Broken clouds 800 ft. (244 m)
Broken clouds 1,300 ft. (396 m)
Broken clouds 2,000 ft. (610 m)
Altimeter29.83 in.Hg (1010 mB)
Relative humidity89 %
Density altitude1,376 ft. (419 m)
Flight conditions Instrument Meteorological Conditions
Raw dataRJTT 231600Z 19006KT 9999 -RA FEW008 BKN013 BKN020 23/21 Q1010 TEMPO FEW005 BKN008
An error has occurred. This application may no longer respond until reloaded. Reload 🗙